createdAt,value
2023-04-14T00:02:08.219Z,96089.00
2023-04-14T00:04:35.835Z,96089.00
2023-04-14T00:07:02.828Z,96087.00
2023-04-14T00:09:30.064Z,96085.00
2023-04-14T00:11:57.453Z,96098.00
2023-04-14T00:14:24.373Z,96098.00
2023-04-14T00:16:51.165Z,96088.00
2023-04-14T00:19:18.058Z,96076.00
2023-04-14T00:21:44.820Z,96080.00
2023-04-14T00:24:11.609Z,96092.00
2023-04-14T00:26:38.574Z,96114.00
2023-04-14T00:29:05.698Z,96103.00
2023-04-14T00:31:32.677Z,96109.00
2023-04-14T00:33:59.542Z,96113.00
2023-04-14T00:36:26.882Z,96102.00
2023-04-14T00:38:53.711Z,96105.00
2023-04-14T00:41:20.580Z,96101.00
2023-04-14T00:43:47.409Z,96098.00
2023-04-14T00:46:17.193Z,96099.00
2023-04-14T00:48:44.400Z,96098.00
2023-04-14T00:51:11.795Z,96102.00
2023-04-14T00:53:39.936Z,96100.00
2023-04-14T00:56:07.979Z,96092.00
2023-04-14T00:58:35.815Z,96095.00
2023-04-14T01:01:02.822Z,96092.00
2023-04-14T01:03:29.754Z,96088.00
2023-04-14T01:05:56.897Z,96085.00
2023-04-14T01:08:24.450Z,96079.00
2023-04-14T01:11:22.044Z,96069.00
2023-04-14T01:14:09.797Z,96065.00
2023-04-14T01:16:45.309Z,96064.00
2023-04-14T01:20:13.541Z,96059.00
2023-04-14T01:22:48.391Z,96061.00
2023-04-14T01:25:36.264Z,96064.00
2023-04-14T01:28:41.845Z,96076.00
2023-04-14T01:31:40.593Z,96081.00
2023-04-14T01:34:28.396Z,96086.00
2023-04-14T01:37:25.375Z,96101.00
2023-04-14T01:39:54.627Z,96097.00
2023-04-14T01:42:26.739Z,96095.00
2023-04-14T01:45:00.792Z,96090.00
2023-04-14T01:47:29.750Z,96097.00
2023-04-14T01:49:59.394Z,96102.00
2023-04-14T01:52:27.577Z,96096.00
2023-04-14T01:54:56.562Z,96093.00
2023-04-14T01:57:26.351Z,96099.00
2023-04-14T01:59:57.552Z,96113.00
2023-04-14T02:02:26.199Z,96107.00
2023-04-14T02:04:57.391Z,96100.00
2023-04-14T02:07:26.431Z,96110.00
2023-04-14T02:09:56.422Z,96114.00
2023-04-14T02:12:24.669Z,96109.00
2023-04-14T02:14:53.276Z,96099.00
2023-04-14T02:17:21.722Z,96093.00
2023-04-14T02:19:49.664Z,96092.00
2023-04-14T02:22:16.543Z,96093.00
2023-04-14T02:24:43.312Z,96104.00
2023-04-14T02:27:25.931Z,96103.00
2023-04-14T02:29:55.130Z,96110.00
2023-04-14T02:32:25.887Z,96103.00
2023-04-14T02:34:57.450Z,96095.00
2023-04-14T02:37:31.806Z,96090.00
2023-04-14T02:40:14.340Z,96089.00
2023-04-14T02:42:45.828Z,96089.00
2023-04-14T02:45:19.778Z,96084.00
2023-04-14T02:47:52.773Z,96089.00
2023-04-14T02:50:21.637Z,96097.00
2023-04-14T02:52:51.425Z,96093.00
2023-04-14T02:55:20.653Z,96095.00
2023-04-14T02:57:48.717Z,96093.00
2023-04-14T03:00:16.088Z,96103.00
2023-04-14T03:02:45.109Z,96112.00
2023-04-14T03:05:13.118Z,96127.00
2023-04-14T03:07:43.957Z,96123.00
2023-04-14T03:10:14.672Z,96118.00
2023-04-14T03:12:43.910Z,96108.00
2023-04-14T03:15:11.390Z,96093.00
2023-04-14T03:17:40.155Z,96090.00
2023-04-14T03:20:09.209Z,96086.00
2023-04-14T03:22:40.816Z,96094.00
2023-04-14T03:25:09.081Z,96083.00
2023-04-14T03:27:36.631Z,96092.00
2023-04-14T03:30:07.150Z,96088.00
2023-04-14T03:32:41.832Z,96085.00
2023-04-14T03:35:12.423Z,96071.00
2023-04-14T03:37:41.446Z,96075.00
2023-04-14T03:40:11.096Z,96085.00
2023-04-14T03:42:44.588Z,96083.00
2023-04-14T03:45:12.061Z,96083.00
2023-04-14T03:47:39.005Z,96073.00
2023-04-14T03:50:10.169Z,96063.00
2023-04-14T03:52:40.321Z,96076.00
2023-04-14T03:55:09.995Z,96072.00
2023-04-14T03:57:37.682Z,96078.00
2023-04-14T04:00:08.943Z,96077.00
2023-04-14T04:02:38.523Z,96078.00
2023-04-14T04:05:07.739Z,96080.00
2023-04-14T04:07:36.186Z,96074.00
2023-04-14T04:10:05.834Z,96071.00
2023-04-14T04:12:33.361Z,96056.00
2023-04-14T04:15:01.053Z,96049.00
2023-04-14T04:17:31.613Z,96048.00
2023-04-14T04:20:00.897Z,96043.00
2023-04-14T04:22:28.811Z,96040.00
2023-04-14T04:24:56.736Z,96028.00
2023-04-14T04:27:27.983Z,96040.00
2023-04-14T04:29:55.977Z,96029.00
2023-04-14T04:32:23.591Z,96033.00
2023-04-14T04:34:51.028Z,96021.00
2023-04-14T04:37:19.834Z,96039.00
2023-04-14T04:39:48.523Z,96032.00
2023-04-14T04:42:16.372Z,96035.00
2023-04-14T04:44:43.336Z,96048.00
2023-04-14T04:47:11.994Z,96053.00
2023-04-14T04:49:38.788Z,96051.00
2023-04-14T04:52:05.732Z,96039.00
2023-04-14T04:54:32.969Z,96040.00
2023-04-14T04:56:59.859Z,96037.00
2023-04-14T04:59:26.931Z,96042.00
2023-04-14T05:01:53.976Z,96038.00
2023-04-14T05:04:21.442Z,96043.00
2023-04-14T05:06:48.306Z,96037.00
2023-04-14T05:09:15.337Z,96033.00
2023-04-14T05:11:42.582Z,96025.00
2023-04-14T05:14:09.358Z,96027.00
2023-04-14T05:16:36.390Z,96033.00
2023-04-14T05:19:04.010Z,96026.00
2023-04-14T05:21:31.008Z,96029.00
2023-04-14T05:23:57.785Z,96034.00
2023-04-14T05:28:54.464Z,96032.00
2023-04-14T05:31:22.163Z,96043.00
2023-04-14T05:33:49.191Z,96037.00
2023-04-14T05:36:16.302Z,96036.00
2023-04-14T05:38:43.183Z,96039.00
2023-04-14T05:41:10.137Z,96035.00
2023-04-14T05:43:37.379Z,96040.00
2023-04-14T05:46:04.651Z,96050.00
2023-04-14T05:48:33.153Z,96052.00
2023-04-14T05:51:00.189Z,96049.00
2023-04-14T05:53:27.754Z,96040.00
2023-04-14T05:55:55.030Z,96039.00
2023-04-14T05:58:21.950Z,96041.00
2023-04-14T06:00:48.782Z,96044.00
2023-04-14T06:03:16.610Z,96046.00
2023-04-14T06:05:43.870Z,96036.00
2023-04-14T06:08:10.831Z,96042.00
2023-04-14T06:10:37.649Z,96040.00
2023-04-14T06:13:04.468Z,96045.00
2023-04-14T06:15:31.512Z,96051.00
2023-04-14T06:17:58.327Z,96054.00
2023-04-14T06:20:25.721Z,96059.00
2023-04-14T06:22:52.656Z,96053.00
2023-04-14T06:25:19.538Z,96051.00
2023-04-14T06:27:46.344Z,96050.00
2023-04-14T06:30:15.342Z,96045.00
2023-04-14T06:32:42.560Z,96056.00
2023-04-14T06:35:19.068Z,96044.00
2023-04-14T06:37:52.690Z,96031.00
2023-04-14T06:40:19.618Z,96031.00
2023-04-14T06:42:46.478Z,96025.00
2023-04-14T06:45:13.464Z,96014.00
2023-04-14T06:47:40.321Z,96002.00
2023-04-14T06:50:07.722Z,96001.00
2023-04-14T06:52:34.602Z,96005.00
2023-04-14T06:55:01.516Z,96004.00
2023-04-14T06:57:28.327Z,95995.00
2023-04-14T06:59:56.493Z,95999.00
2023-04-14T07:02:23.483Z,96000.00
2023-04-14T07:04:50.536Z,95995.00
2023-04-14T07:07:18.032Z,95997.00
2023-04-14T07:09:44.838Z,96006.00
2023-04-14T07:12:16.665Z,96007.00
2023-04-14T07:14:50.860Z,95998.00
2023-04-14T07:17:19.352Z,95993.00
2023-04-14T07:19:46.570Z,95986.00
2023-04-14T07:22:19.533Z,95984.00
2023-04-14T07:24:46.582Z,95992.00
2023-04-14T07:27:16.118Z,95990.00
2023-04-14T07:29:43.046Z,95993.00
2023-04-14T07:32:10.000Z,95991.00
2023-04-14T07:34:37.075Z,95989.00
2023-04-14T07:37:03.886Z,95981.00
2023-04-14T07:39:30.722Z,95985.00
2023-04-14T07:41:58.741Z,96000.00
2023-04-14T07:44:26.345Z,96008.00
2023-04-14T07:46:53.309Z,96008.00
2023-04-14T07:49:20.409Z,96021.00
2023-04-14T07:51:47.249Z,96016.00
2023-04-14T07:54:14.353Z,96014.00
2023-04-14T07:56:41.133Z,96023.00
2023-04-14T07:59:07.967Z,96017.00
2023-04-14T08:01:34.795Z,96009.00
2023-04-14T08:04:01.856Z,96004.00
2023-04-14T08:06:29.020Z,96002.00
2023-04-14T08:08:55.805Z,96013.00
2023-04-14T08:11:22.612Z,95993.00
2023-04-14T08:13:50.201Z,96006.00
2023-04-14T08:16:17.158Z,96019.00
2023-04-14T08:18:44.031Z,96009.00
2023-04-14T08:21:11.309Z,96015.00
2023-04-14T08:23:38.207Z,96009.00
2023-04-14T08:26:05.047Z,96008.00
2023-04-14T08:28:31.883Z,96009.00
2023-04-14T08:30:58.923Z,96028.00
2023-04-14T08:33:25.809Z,96025.00
2023-04-14T08:35:58.693Z,96017.00
2023-04-14T08:38:28.152Z,96027.00
2023-04-14T08:40:56.640Z,96027.00
2023-04-14T08:43:23.648Z,96016.00
2023-04-14T08:45:54.338Z,96015.00
2023-04-14T08:48:23.697Z,96012.00
2023-04-14T08:51:49.545Z,96013.00
2023-04-14T08:54:17.989Z,96017.00
2023-04-14T08:56:44.966Z,96004.00
2023-04-14T08:59:12.021Z,96006.00
2023-04-14T09:01:40.165Z,95994.00
2023-04-14T09:04:08.817Z,96005.00
2023-04-14T09:06:36.336Z,96002.00
2023-04-14T09:09:07.419Z,96013.00
2023-04-14T09:11:34.912Z,96011.00
2023-04-14T09:14:02.285Z,96009.00
2023-04-14T09:16:30.247Z,96022.00
2023-04-14T09:19:00.050Z,96032.00
2023-04-14T09:21:51.582Z,96041.00
2023-04-14T09:24:31.201Z,96039.00
2023-04-14T09:27:02.136Z,96024.00
2023-04-14T09:29:29.406Z,96025.00
2023-04-14T09:31:56.705Z,96014.00
2023-04-14T09:34:23.569Z,96013.00
2023-04-14T09:37:05.256Z,96015.00
2023-04-14T09:39:36.795Z,96023.00
2023-04-14T09:42:04.796Z,96019.00
2023-04-14T09:44:31.685Z,96016.00
2023-04-14T09:47:06.623Z,96007.00
2023-04-14T09:49:34.051Z,96010.00
2023-04-14T09:52:08.691Z,96011.00
2023-04-14T09:54:36.225Z,96015.00
2023-04-14T09:57:04.209Z,96017.00
2023-04-14T09:59:38.336Z,96016.00
2023-04-14T10:02:08.169Z,96015.00
2023-04-14T10:04:37.968Z,96025.00
2023-04-14T10:07:12.129Z,96016.00
2023-04-14T10:09:40.537Z,96024.00
2023-04-14T10:12:13.858Z,96010.00
2023-04-14T10:14:42.506Z,96018.00
2023-04-14T10:17:10.600Z,96023.00
2023-04-14T10:19:38.707Z,96012.00
2023-04-14T10:22:08.517Z,96019.00
2023-04-14T10:24:35.942Z,96008.00
2023-04-14T10:27:03.834Z,96010.00
2023-04-14T10:29:31.110Z,96018.00
2023-04-14T10:32:05.521Z,96007.00
2023-04-14T10:34:37.487Z,96009.00
2023-04-14T10:37:14.975Z,95997.00
2023-04-14T10:39:42.921Z,95990.00
2023-04-14T10:42:10.047Z,95986.00
2023-04-14T10:44:37.119Z,95976.00
2023-04-14T10:47:07.651Z,95963.00
2023-04-14T10:49:40.570Z,95974.00
2023-04-14T10:52:21.162Z,95971.00
2023-04-14T10:55:01.166Z,95973.00
2023-04-14T10:57:29.630Z,95973.00
2023-04-14T10:59:59.164Z,95981.00
2023-04-14T11:02:28.149Z,95977.00
2023-04-14T11:05:13.790Z,95977.00
2023-04-14T11:07:49.200Z,95976.00
2023-04-14T11:10:24.749Z,95982.00
2023-04-14T11:13:07.111Z,95979.00
2023-04-14T11:15:57.125Z,95964.00
2023-04-14T11:18:30.169Z,95957.00
2023-04-14T11:21:10.584Z,95961.00
2023-04-14T11:23:38.476Z,95955.00
2023-04-14T11:26:08.057Z,95953.00
2023-04-14T11:28:38.815Z,95951.00
2023-04-14T11:31:08.822Z,95949.00
2023-04-14T11:33:38.455Z,95949.00
2023-04-14T11:36:07.472Z,95933.00
2023-04-14T11:38:40.712Z,95934.00
2023-04-14T11:41:08.879Z,95937.00
2023-04-14T11:43:38.106Z,95942.00
2023-04-14T11:46:06.130Z,95943.00
2023-04-14T11:48:32.969Z,95934.00
2023-04-14T11:51:03.405Z,95935.00
2023-04-14T11:53:31.358Z,95937.00
2023-04-14T11:55:58.687Z,95931.00
2023-04-14T11:58:27.256Z,95934.00
2023-04-14T12:00:59.124Z,95934.00
2023-04-14T12:03:29.067Z,95933.00
2023-04-14T12:06:01.576Z,95930.00
2023-04-14T12:08:33.022Z,95933.00
2023-04-14T12:11:16.327Z,95931.00
2023-04-14T12:13:45.066Z,95927.00
2023-04-14T12:16:12.393Z,95917.00
2023-04-14T12:18:39.558Z,95925.00
2023-04-14T12:21:09.811Z,95924.00
2023-04-14T12:23:42.401Z,95921.00
2023-04-14T12:26:12.895Z,95927.00
2023-04-14T12:28:42.020Z,95919.00
2023-04-14T12:31:09.848Z,95921.00
2023-04-14T12:33:36.950Z,95911.00
2023-04-14T12:36:14.021Z,95909.00
2023-04-14T12:38:41.534Z,95914.00
2023-04-14T12:41:08.500Z,95922.00
2023-04-14T12:43:37.740Z,95913.00
2023-04-14T12:46:06.280Z,95912.00
2023-04-14T12:48:48.873Z,95909.00
2023-04-14T12:51:19.961Z,95904.00
2023-04-14T12:53:50.305Z,95911.00
2023-04-14T12:56:22.127Z,95903.00
2023-04-14T12:58:49.410Z,95908.00
2023-04-14T13:01:20.162Z,95893.00
2023-04-14T13:03:55.810Z,95898.00
2023-04-14T13:06:24.528Z,95894.00
2023-04-14T13:08:53.812Z,95905.00
2023-04-14T13:11:23.356Z,95900.00
2023-04-14T13:13:52.249Z,95911.00
2023-04-14T13:16:19.816Z,95906.00
2023-04-14T13:18:48.618Z,95906.00
2023-04-14T13:21:16.692Z,95909.00
2023-04-14T13:23:43.961Z,95909.00
2023-04-14T13:26:10.949Z,95910.00
2023-04-14T13:28:37.985Z,95906.00
2023-04-14T13:31:05.032Z,95904.00
2023-04-14T13:33:33.227Z,95910.00
2023-04-14T13:36:02.941Z,95913.00
2023-04-14T13:38:30.636Z,95910.00
2023-04-14T13:40:57.384Z,95893.00
2023-04-14T13:43:24.751Z,95899.00
2023-04-14T13:45:52.585Z,95901.00
2023-04-14T13:48:19.579Z,95898.00
2023-04-14T13:50:46.342Z,95891.00
2023-04-14T13:53:13.162Z,95887.00
2023-04-14T13:55:39.956Z,95893.00
2023-04-14T13:58:06.761Z,95892.00
2023-04-14T14:00:33.591Z,95880.00
2023-04-14T14:03:00.876Z,95888.00
2023-04-14T14:05:28.303Z,95891.00
2023-04-14T14:07:56.803Z,95886.00
2023-04-14T14:10:23.674Z,95894.00
2023-04-14T14:12:50.466Z,95897.00
2023-04-14T14:15:17.564Z,95890.00
2023-04-14T14:17:44.445Z,95900.00
2023-04-14T14:20:11.529Z,95902.00
2023-04-14T14:22:39.027Z,95904.00
2023-04-14T14:25:18.513Z,95892.00
2023-04-14T14:27:46.903Z,95890.00
2023-04-14T14:30:13.818Z,95902.00
2023-04-14T14:32:40.645Z,95891.00
2023-04-14T14:35:08.214Z,95897.00
2023-04-14T14:37:35.162Z,95892.00
2023-04-14T14:40:02.195Z,95896.00
2023-04-14T14:42:29.008Z,95891.00
2023-04-14T14:44:55.861Z,95899.00
2023-04-14T14:47:24.902Z,95896.00
2023-04-14T14:49:59.768Z,95911.00
2023-04-14T14:52:31.971Z,95903.00
2023-04-14T14:54:59.019Z,95901.00
2023-04-14T14:57:26.815Z,95907.00
2023-04-14T14:59:53.862Z,95905.00
2023-04-14T15:02:21.601Z,95911.00
2023-04-14T15:04:48.994Z,95912.00
2023-04-14T15:07:15.903Z,95911.00
2023-04-14T15:09:42.900Z,95906.00
2023-04-14T15:12:09.719Z,95907.00
2023-04-14T15:14:37.780Z,95912.00
2023-04-14T15:17:05.037Z,95912.00
2023-04-14T15:19:32.771Z,95919.00
2023-04-14T15:22:01.078Z,95913.00
2023-04-14T15:24:27.926Z,95922.00
2023-04-14T15:26:54.750Z,95920.00
2023-04-14T15:29:24.947Z,95910.00
2023-04-14T15:31:52.140Z,95915.00
2023-04-14T15:34:19.000Z,95904.00
2023-04-14T15:36:45.816Z,95920.00
2023-04-14T15:39:12.594Z,95914.00
2023-04-14T15:41:39.470Z,95919.00
2023-04-14T15:44:06.283Z,95918.00
2023-04-14T15:46:33.108Z,95908.00
2023-04-14T15:48:59.979Z,95914.00
2023-04-14T15:51:27.034Z,95905.00
2023-04-14T15:53:53.812Z,95916.00
2023-04-14T15:56:23.002Z,95912.00
2023-04-14T15:58:50.648Z,95913.00
2023-04-14T16:01:17.743Z,95912.00
2023-04-14T16:03:44.910Z,95902.00
2023-04-14T16:06:12.301Z,95915.00
2023-04-14T16:08:39.432Z,95913.00
2023-04-14T16:11:06.247Z,95916.00
2023-04-14T16:13:33.162Z,95922.00
2023-04-14T16:16:00.335Z,95916.00
2023-04-14T16:18:27.514Z,95926.00
2023-04-14T16:20:54.308Z,95936.00
2023-04-14T16:23:21.870Z,95927.00
2023-04-14T16:25:49.872Z,95929.00
2023-04-14T16:28:16.705Z,95929.00
2023-04-14T16:30:43.596Z,95922.00
2023-04-14T16:33:10.737Z,95931.00
2023-04-14T16:35:37.753Z,95920.00
2023-04-14T16:38:08.233Z,95935.00
2023-04-14T16:40:36.512Z,95929.00
2023-04-14T16:43:04.461Z,95940.00
2023-04-14T16:45:32.266Z,95929.00
2023-04-14T16:47:59.304Z,95938.00
2023-04-14T16:50:26.896Z,95923.00
2023-04-14T16:52:53.858Z,95931.00
2023-04-14T16:55:20.738Z,95924.00
2023-04-14T16:57:47.573Z,95918.00
2023-04-14T17:00:14.937Z,95919.00
2023-04-14T17:02:41.908Z,95925.00
2023-04-14T17:05:10.453Z,95925.00
2023-04-14T17:07:37.594Z,95918.00
2023-04-14T17:10:05.116Z,95922.00
2023-04-14T17:12:32.133Z,95922.00
2023-04-14T17:15:00.357Z,95921.00
2023-04-14T17:17:28.350Z,95920.00
2023-04-14T17:19:56.775Z,95924.00
2023-04-14T17:22:24.615Z,95921.00
2023-04-14T17:24:52.117Z,95912.00
2023-04-14T17:27:19.136Z,95925.00
2023-04-14T17:29:46.418Z,95921.00
2023-04-14T17:32:13.476Z,95914.00
2023-04-14T17:34:40.861Z,95921.00
2023-04-14T17:37:07.748Z,95913.00
2023-04-14T17:39:34.540Z,95924.00
2023-04-14T17:42:02.073Z,95919.00
2023-04-14T17:44:34.170Z,95918.00
2023-04-14T17:47:12.696Z,95919.00
2023-04-14T17:49:39.860Z,95924.00
2023-04-14T17:52:07.742Z,95916.00
2023-04-14T17:54:36.667Z,95924.00
2023-04-14T17:57:04.415Z,95916.00
2023-04-14T17:59:31.588Z,95926.00
2023-04-14T18:01:58.670Z,95913.00
2023-04-14T18:04:25.620Z,95918.00
2023-04-14T18:06:52.748Z,95916.00
2023-04-14T18:09:19.558Z,95916.00
2023-04-14T18:11:46.409Z,95916.00
2023-04-14T18:14:13.824Z,95918.00
2023-04-14T18:16:40.783Z,95915.00
2023-04-14T18:19:08.087Z,95911.00
2023-04-14T18:21:35.068Z,95923.00
2023-04-14T18:26:31.901Z,95916.00
2023-04-14T18:28:58.760Z,95911.00
2023-04-14T18:31:25.577Z,95917.00
2023-04-14T18:33:52.385Z,95915.00
2023-04-14T18:36:19.179Z,95917.00
2023-04-14T18:38:46.387Z,95918.00
2023-04-14T18:41:13.488Z,95928.00
2023-04-14T18:43:40.245Z,95919.00
2023-04-14T18:46:08.129Z,95916.00
2023-04-14T18:48:34.939Z,95921.00
2023-04-14T18:51:04.332Z,95934.00
2023-04-14T18:53:31.804Z,95921.00
2023-04-14T18:55:58.721Z,95926.00
2023-04-14T18:58:25.664Z,95925.00
2023-04-14T19:00:52.549Z,95923.00
2023-04-14T19:03:19.567Z,95911.00
2023-04-14T19:05:47.166Z,95925.00
2023-04-14T19:08:14.086Z,95925.00
2023-04-14T19:10:40.947Z,95920.00
2023-04-14T19:13:07.818Z,95929.00
2023-04-14T19:15:34.834Z,95925.00
2023-04-14T19:18:03.527Z,95936.00
2023-04-14T19:20:31.023Z,95923.00
2023-04-14T19:22:58.375Z,95924.00
2023-04-14T19:25:25.312Z,95931.00
2023-04-14T19:27:52.088Z,95929.00
2023-04-14T19:30:19.557Z,95929.00
2023-04-14T19:32:46.531Z,95930.00
2023-04-14T19:35:13.471Z,95932.00
2023-04-14T19:37:40.548Z,95927.00
2023-04-14T19:40:08.599Z,95930.00
2023-04-14T19:42:35.638Z,95922.00
2023-04-14T19:45:02.427Z,95919.00
2023-04-14T19:47:29.286Z,95914.00
2023-04-14T19:49:59.480Z,95910.00
2023-04-14T19:52:26.928Z,95920.00
2023-04-14T19:54:54.965Z,95908.00
2023-04-14T19:57:22.418Z,95915.00
2023-04-14T19:59:49.240Z,95906.00
2023-04-14T20:02:16.261Z,95907.00
2023-04-14T20:04:45.115Z,95909.00
2023-04-14T20:07:12.034Z,95914.00
2023-04-14T20:09:44.679Z,95906.00
2023-04-14T20:12:11.517Z,95912.00
2023-04-14T20:14:38.931Z,95894.00
2023-04-14T20:17:06.298Z,95893.00
2023-04-14T20:19:33.183Z,95897.00
2023-04-14T20:21:59.997Z,95910.00
2023-04-14T20:24:26.802Z,95902.00
2023-04-14T20:26:53.590Z,95899.00
2023-04-14T20:29:20.356Z,95904.00
2023-04-14T20:31:48.343Z,95909.00
2023-04-14T20:34:15.410Z,95902.00
2023-04-14T20:36:44.732Z,95904.00
2023-04-14T20:39:11.750Z,95903.00
2023-04-14T20:41:38.603Z,95904.00
2023-04-14T20:44:05.436Z,95910.00
2023-04-14T20:46:32.616Z,95894.00
2023-04-14T20:49:01.048Z,95880.00
2023-04-14T20:51:28.085Z,95888.00
2023-04-14T20:53:56.072Z,95888.00
2023-04-14T20:56:22.822Z,95884.00
2023-04-14T20:58:49.902Z,95882.00
2023-04-14T21:01:17.169Z,95874.00
2023-04-14T21:03:44.110Z,95879.00
2023-04-14T21:06:11.732Z,95880.00
2023-04-14T21:08:39.942Z,95883.00
2023-04-14T21:11:16.823Z,95876.00
2023-04-14T21:15:40.927Z,95883.00
2023-04-14T21:16:35.720Z,95871.00
2023-04-14T21:19:04.056Z,95882.00
2023-04-14T21:21:31.814Z,95870.00
2023-04-14T21:23:58.998Z,95875.00
2023-04-14T21:26:28.389Z,95871.00
2023-04-14T21:28:55.193Z,95874.00
2023-04-14T21:31:22.020Z,95876.00
2023-04-14T21:33:48.830Z,95874.00
2023-04-14T21:36:15.771Z,95872.00
2023-04-14T21:38:42.575Z,95868.00
2023-04-14T21:41:09.703Z,95872.00
2023-04-14T21:43:38.612Z,95873.00
2023-04-14T21:46:05.639Z,95862.00
2023-04-14T21:48:32.697Z,95857.00
2023-04-14T21:50:59.536Z,95858.00
2023-04-14T21:53:26.324Z,95860.00
2023-04-14T21:56:09.038Z,95842.00
2023-04-14T21:58:39.399Z,95855.00
2023-04-14T22:01:07.668Z,95844.00
2023-04-14T22:03:37.301Z,95840.00
2023-04-14T22:06:04.746Z,95839.00
2023-04-14T22:08:32.128Z,95838.00
2023-04-14T22:10:58.914Z,95833.00
2023-04-14T22:13:26.247Z,95836.00
2023-04-14T22:15:53.063Z,95829.00
2023-04-14T22:18:19.818Z,95837.00
2023-04-14T22:20:46.613Z,95833.00
2023-04-14T22:23:13.406Z,95836.00
2023-04-14T22:25:40.329Z,95842.00
2023-04-14T22:28:07.351Z,95843.00
2023-04-14T22:30:34.348Z,95845.00
2023-04-14T22:33:02.276Z,95840.00
2023-04-14T22:35:30.826Z,95839.00
2023-04-14T22:37:57.900Z,95837.00
2023-04-14T22:40:24.803Z,95835.00
2023-04-14T22:42:51.691Z,95827.00
2023-04-14T22:45:18.623Z,95819.00
2023-04-14T22:47:45.585Z,95826.00
2023-04-14T22:50:12.708Z,95825.00
2023-04-14T22:52:39.467Z,95825.00
2023-04-14T22:55:07.580Z,95818.00
2023-04-14T22:57:34.437Z,95826.00
2023-04-14T23:00:01.425Z,95827.00
2023-04-14T23:02:28.559Z,95828.00
2023-04-14T23:04:55.471Z,95822.00
2023-04-14T23:07:22.246Z,95818.00
2023-04-14T23:09:49.505Z,95813.00
2023-04-14T23:12:16.631Z,95822.00
2023-04-14T23:14:43.462Z,95820.00
2023-04-14T23:17:10.551Z,95821.00
2023-04-14T23:19:37.583Z,95819.00
2023-04-14T23:22:04.402Z,95820.00
2023-04-14T23:24:31.329Z,95812.00
2023-04-14T23:26:58.148Z,95816.00
2023-04-14T23:29:24.906Z,95813.00
2023-04-14T23:31:51.791Z,95806.00
2023-04-14T23:34:18.652Z,95794.00
2023-04-14T23:36:48.505Z,95799.00
2023-04-14T23:39:15.429Z,95792.00
2023-04-14T23:41:42.557Z,95789.00
2023-04-14T23:44:09.403Z,95796.00
2023-04-14T23:46:36.250Z,95794.00
2023-04-14T23:49:23.241Z,95791.00
2023-04-14T23:51:49.786Z,95793.00
2023-04-14T23:54:16.515Z,95785.00
2023-04-14T23:56:43.306Z,95783.00
2023-04-14T23:59:10.239Z,95780.00
